sensor_id;sensor_type;location;lat;lon;timestamp;temperature;humidity
57664;DHT22;43493;53.098;6.064;2022-09-21T00:01:27;9.90;99.90
57664;DHT22;43493;53.098;6.064;2022-09-21T00:04:01;9.90;99.90
57664;DHT22;43493;53.098;6.064;2022-09-21T00:06:29;9.90;99.90
57664;DHT22;43493;53.098;6.064;2022-09-21T00:08:55;9.80;99.90
57664;DHT22;43493;53.098;6.064;2022-09-21T00:11:24;9.90;99.90
57664;DHT22;43493;53.098;6.064;2022-09-21T00:13:56;9.90;99.90
57664;DHT22;43493;53.098;6.064;2022-09-21T00:16:24;9.80;99.90
57664;DHT22;43493;53.098;6.064;2022-09-21T00:18:50;9.90;99.90
57664;DHT22;43493;53.098;6.064;2022-09-21T00:21:17;9.90;99.90
57664;DHT22;43493;53.098;6.064;2022-09-21T00:23:43;9.80;99.90
57664;DHT22;43493;53.098;6.064;2022-09-21T00:26:18;9.80;99.90
57664;DHT22;43493;53.098;6.064;2022-09-21T00:28:45;9.80;99.90
57664;DHT22;43493;53.098;6.064;2022-09-21T00:31:13;9.70;99.90
57664;DHT22;43493;53.098;6.064;2022-09-21T00:33:40;9.60;99.90
57664;DHT22;43493;53.098;6.064;2022-09-21T00:36:12;9.70;99.90
57664;DHT22;43493;53.098;6.064;2022-09-21T00:38:39;9.60;99.90
57664;DHT22;43493;53.098;6.064;2022-09-21T00:41:06;9.70;99.90
57664;DHT22;43493;53.098;6.064;2022-09-21T00:43:34;9.70;99.90
57664;DHT22;43493;53.098;6.064;2022-09-21T00:46:09;9.60;99.90
57664;DHT22;43493;53.098;6.064;2022-09-21T00:48:37;9.70;99.90
57664;DHT22;43493;53.098;6.064;2022-09-21T00:51:06;9.60;99.90
57664;DHT22;43493;53.098;6.064;2022-09-21T00:53:34;9.70;99.90
57664;DHT22;43493;53.098;6.064;2022-09-21T00:56:02;9.70;99.90
57664;DHT22;43493;53.098;6.064;2022-09-21T00:58:39;9.60;99.90
57664;DHT22;43493;53.098;6.064;2022-09-21T01:01:08;9.60;99.90
57664;DHT22;43493;53.098;6.064;2022-09-21T01:03:35;9.60;99.90
57664;DHT22;43493;53.098;6.064;2022-09-21T01:06:01;9.50;99.90
57664;DHT22;43493;53.098;6.064;2022-09-21T01:08:28;9.50;99.90
57664;DHT22;43493;53.098;6.064;2022-09-21T01:18:48;9.50;99.90
57664;DHT22;43493;53.098;6.064;2022-09-21T01:29:48;9.50;99.90
57664;DHT22;43493;53.098;6.064;2022-09-21T01:32:32;9.40;99.90
57664;DHT22;43493;53.098;6.064;2022-09-21T01:40:04;9.30;99.90
57664;DHT22;43493;53.098;6.064;2022-09-21T01:42:33;9.30;99.90
57664;DHT22;43493;53.098;6.064;2022-09-21T01:45:02;9.30;99.90
57664;DHT22;43493;53.098;6.064;2022-09-21T01:47:32;9.20;99.90
57664;DHT22;43493;53.098;6.064;2022-09-21T01:50:02;9.20;99.90
57664;DHT22;43493;53.098;6.064;2022-09-21T01:52:35;9.20;99.90
57664;DHT22;43493;53.098;6.064;2022-09-21T01:55:16;9.20;99.90
57664;DHT22;43493;53.098;6.064;2022-09-21T01:57:55;9.20;99.90
57664;DHT22;43493;53.098;6.064;2022-09-21T02:00:24;9.20;99.90
57664;DHT22;43493;53.098;6.064;2022-09-21T02:02:53;9.20;99.90
57664;DHT22;43493;53.098;6.064;2022-09-21T02:05:21;9.20;99.90
57664;DHT22;43493;53.098;6.064;2022-09-21T02:07:49;9.10;99.90
57664;DHT22;43493;53.098;6.064;2022-09-21T02:10:33;9.20;99.90
57664;DHT22;43493;53.098;6.064;2022-09-21T02:13:03;9.10;99.90
57664;DHT22;43493;53.098;6.064;2022-09-21T02:15:55;9.10;99.90
57664;DHT22;43493;53.098;6.064;2022-09-21T02:18:38;9.10;99.90
57664;DHT22;43493;53.098;6.064;2022-09-21T02:21:15;9.00;99.90
57664;DHT22;43493;53.098;6.064;2022-09-21T02:23:57;9.10;99.90
57664;DHT22;43493;53.098;6.064;2022-09-21T02:32:21;9.00;99.90
57664;DHT22;43493;53.098;6.064;2022-09-21T02:34:52;9.00;99.90
57664;DHT22;43493;53.098;6.064;2022-09-21T02:42:37;9.10;99.90
57664;DHT22;43493;53.098;6.064;2022-09-21T02:45:18;9.00;99.90
57664;DHT22;43493;53.098;6.064;2022-09-21T02:48:01;9.00;99.90
57664;DHT22;43493;53.098;6.064;2022-09-21T02:50:40;8.90;99.90
57664;DHT22;43493;53.098;6.064;2022-09-21T02:53:08;8.90;99.90
57664;DHT22;43493;53.098;6.064;2022-09-21T02:55:35;8.90;99.90
57664;DHT22;43493;53.098;6.064;2022-09-21T02:58:05;8.80;99.90
57664;DHT22;43493;53.098;6.064;2022-09-21T03:00:34;8.80;99.90
57664;DHT22;43493;53.098;6.064;2022-09-21T03:03:16;8.90;99.90
57664;DHT22;43493;53.098;6.064;2022-09-21T03:05:47;8.90;99.90
57664;DHT22;43493;53.098;6.064;2022-09-21T03:08:14;8.80;99.90
57664;DHT22;43493;53.098;6.064;2022-09-21T03:10:40;8.80;99.90
57664;DHT22;43493;53.098;6.064;2022-09-21T03:13:06;8.80;99.90
57664;DHT22;43493;53.098;6.064;2022-09-21T03:15:36;8.80;99.90
57664;DHT22;43493;53.098;6.064;2022-09-21T03:18:06;8.80;99.90
57664;DHT22;43493;53.098;6.064;2022-09-21T03:20:35;8.80;99.90
57664;DHT22;43493;53.098;6.064;2022-09-21T03:23:01;8.80;99.90
57664;DHT22;43493;53.098;6.064;2022-09-21T03:25:28;8.70;99.90
57664;DHT22;43493;53.098;6.064;2022-09-21T03:27:54;8.70;99.90
57664;DHT22;43493;53.098;6.064;2022-09-21T03:30:21;8.70;99.90
57664;DHT22;43493;53.098;6.064;2022-09-21T03:32:53;8.70;99.90
57664;DHT22;43493;53.098;6.064;2022-09-21T03:35:21;8.70;99.90
57664;DHT22;43493;53.098;6.064;2022-09-21T03:37:48;8.70;99.90
57664;DHT22;43493;53.098;6.064;2022-09-21T03:40:15;8.70;99.90
57664;DHT22;43493;53.098;6.064;2022-09-21T03:42:41;8.60;99.90
57664;DHT22;43493;53.098;6.064;2022-09-21T03:45:08;8.70;99.90
57664;DHT22;43493;53.098;6.064;2022-09-21T03:47:34;8.60;99.90
57664;DHT22;43493;53.098;6.064;2022-09-21T03:50:00;8.60;99.90
57664;DHT22;43493;53.098;6.064;2022-09-21T03:52:26;8.60;99.90
57664;DHT22;43493;53.098;6.064;2022-09-21T03:54:52;8.60;99.90
57664;DHT22;43493;53.098;6.064;2022-09-21T03:57:19;8.60;99.90
57664;DHT22;43493;53.098;6.064;2022-09-21T03:59:45;8.60;99.90
57664;DHT22;43493;53.098;6.064;2022-09-21T04:02:10;8.50;99.90
57664;DHT22;43493;53.098;6.064;2022-09-21T04:04:36;8.60;99.90
57664;DHT22;43493;53.098;6.064;2022-09-21T04:07:02;8.50;99.90
57664;DHT22;43493;53.098;6.064;2022-09-21T04:09:27;8.50;99.90
57664;DHT22;43493;53.098;6.064;2022-09-21T04:11:53;8.60;99.90
57664;DHT22;43493;53.098;6.064;2022-09-21T04:14:19;8.50;99.90
57664;DHT22;43493;53.098;6.064;2022-09-21T04:16:45;8.50;99.90
57664;DHT22;43493;53.098;6.064;2022-09-21T04:19:11;8.50;99.90
57664;DHT22;43493;53.098;6.064;2022-09-21T04:21:37;8.40;99.90
57664;DHT22;43493;53.098;6.064;2022-09-21T04:24:03;8.40;99.90
57664;DHT22;43493;53.098;6.064;2022-09-21T04:26:31;8.40;99.90
57664;DHT22;43493;53.098;6.064;2022-09-21T04:28:58;8.50;99.90
57664;DHT22;43493;53.098;6.064;2022-09-21T04:31:24;8.50;99.90
57664;DHT22;43493;53.098;6.064;2022-09-21T04:33:52;8.50;99.90
57664;DHT22;43493;53.098;6.064;2022-09-21T04:36:19;8.50;99.90
57664;DHT22;43493;53.098;6.064;2022-09-21T04:38:45;8.40;99.90
57664;DHT22;43493;53.098;6.064;2022-09-21T04:41:11;8.40;99.90
57664;DHT22;43493;53.098;6.064;2022-09-21T04:43:40;8.40;99.90
57664;DHT22;43493;53.098;6.064;2022-09-21T04:46:08;8.40;99.90
57664;DHT22;43493;53.098;6.064;2022-09-21T04:48:35;8.40;99.90
57664;DHT22;43493;53.098;6.064;2022-09-21T04:51:02;8.40;99.90
57664;DHT22;43493;53.098;6.064;2022-09-21T04:53:28;8.30;99.90
57664;DHT22;43493;53.098;6.064;2022-09-21T04:55:54;8.30;99.90
57664;DHT22;43493;53.098;6.064;2022-09-21T04:58:21;8.30;99.90
57664;DHT22;43493;53.098;6.064;2022-09-21T05:00:51;8.30;99.90
57664;DHT22;43493;53.098;6.064;2022-09-21T05:03:20;8.30;99.90
57664;DHT22;43493;53.098;6.064;2022-09-21T05:05:50;8.30;99.90
57664;DHT22;43493;53.098;6.064;2022-09-21T05:08:17;8.30;99.90
57664;DHT22;43493;53.098;6.064;2022-09-21T05:11:03;8.30;99.90
57664;DHT22;43493;53.098;6.064;2022-09-21T05:13:29;8.30;99.90
57664;DHT22;43493;53.098;6.064;2022-09-21T05:15:55;8.30;99.90
57664;DHT22;43493;53.098;6.064;2022-09-21T05:18:21;8.30;99.90
57664;DHT22;43493;53.098;6.064;2022-09-21T05:20:56;8.30;99.90
57664;DHT22;43493;53.098;6.064;2022-09-21T05:23:23;8.20;99.90
57664;DHT22;43493;53.098;6.064;2022-09-21T05:25:49;8.30;99.90
57664;DHT22;43493;53.098;6.064;2022-09-21T05:28:18;8.30;99.90
57664;DHT22;43493;53.098;6.064;2022-09-21T05:33:32;8.20;99.90
57664;DHT22;43493;53.098;6.064;2022-09-21T05:38:36;8.20;99.90
57664;DHT22;43493;53.098;6.064;2022-09-21T05:41:02;8.20;99.90
57664;DHT22;43493;53.098;6.064;2022-09-21T05:43:28;8.20;99.90
57664;DHT22;43493;53.098;6.064;2022-09-21T05:46:02;8.20;99.90
57664;DHT22;43493;53.098;6.064;2022-09-21T05:48:36;8.20;99.90
57664;DHT22;43493;53.098;6.064;2022-09-21T05:54:03;8.40;99.90
57664;DHT22;43493;53.098;6.064;2022-09-21T05:59:28;8.40;99.90
57664;DHT22;43493;53.098;6.064;2022-09-21T06:04:23;8.40;99.90
57664;DHT22;43493;53.098;6.064;2022-09-21T06:06:48;8.40;99.90
57664;DHT22;43493;53.098;6.064;2022-09-21T06:09:14;8.40;99.90
57664;DHT22;43493;53.098;6.064;2022-09-21T06:11:40;8.40;99.90
57664;DHT22;43493;53.098;6.064;2022-09-21T06:14:05;8.50;99.90
57664;DHT22;43493;53.098;6.064;2022-09-21T06:16:38;8.50;99.90
57664;DHT22;43493;53.098;6.064;2022-09-21T06:19:05;8.50;99.90
57664;DHT22;43493;53.098;6.064;2022-09-21T06:21:31;8.50;99.90
57664;DHT22;43493;53.098;6.064;2022-09-21T06:23:56;8.50;99.90
57664;DHT22;43493;53.098;6.064;2022-09-21T06:26:22;8.50;99.90
57664;DHT22;43493;53.098;6.064;2022-09-21T06:28:48;8.60;99.90
57664;DHT22;43493;53.098;6.064;2022-09-21T06:31:13;8.60;99.90
57664;DHT22;43493;53.098;6.064;2022-09-21T06:33:39;8.70;99.90
57664;DHT22;43493;53.098;6.064;2022-09-21T06:36:05;8.80;99.90
57664;DHT22;43493;53.098;6.064;2022-09-21T06:38:30;8.80;99.90
57664;DHT22;43493;53.098;6.064;2022-09-21T06:41:01;8.80;99.90
57664;DHT22;43493;53.098;6.064;2022-09-21T06:43:28;8.90;99.90
57664;DHT22;43493;53.098;6.064;2022-09-21T06:45:58;9.00;99.90
57664;DHT22;43493;53.098;6.064;2022-09-21T06:48:25;9.00;99.90
57664;DHT22;43493;53.098;6.064;2022-09-21T06:50:59;9.60;99.90
57664;DHT22;43493;53.098;6.064;2022-09-21T06:53:26;9.80;99.90
57664;DHT22;43493;53.098;6.064;2022-09-21T06:58:18;13.40;99.90
57664;DHT22;43493;53.098;6.064;2022-09-21T07:00:44;13.90;99.90
57664;DHT22;43493;53.098;6.064;2022-09-21T07:03:11;15.00;99.90
57664;DHT22;43493;53.098;6.064;2022-09-21T07:08:04;17.20;96.60
57664;DHT22;43493;53.098;6.064;2022-09-21T07:10:30;17.50;99.90
57664;DHT22;43493;53.098;6.064;2022-09-21T07:20:20;20.60;75.20
57664;DHT22;43493;53.098;6.064;2022-09-21T07:27:39;21.20;66.90
57664;DHT22;43493;53.098;6.064;2022-09-21T07:30:06;21.30;99.90
57664;DHT22;43493;53.098;6.064;2022-09-21T07:32:32;20.40;87.60
57664;DHT22;43493;53.098;6.064;2022-09-21T07:34:58;19.50;90.00
57664;DHT22;43493;53.098;6.064;2022-09-21T07:39:51;18.20;99.90
57664;DHT22;43493;53.098;6.064;2022-09-21T07:42:18;17.70;97.30
57664;DHT22;43493;53.098;6.064;2022-09-21T07:44:45;17.30;99.60
57664;DHT22;43493;53.098;6.064;2022-09-21T07:47:11;17.10;99.90
57664;DHT22;43493;53.098;6.064;2022-09-21T07:49:38;16.80;99.90
57664;DHT22;43493;53.098;6.064;2022-09-21T07:52:04;16.50;99.90
57664;DHT22;43493;53.098;6.064;2022-09-21T07:54:30;16.40;99.90
57664;DHT22;43493;53.098;6.064;2022-09-21T07:56:58;16.20;99.90
57664;DHT22;43493;53.098;6.064;2022-09-21T07:59:42;16.20;99.90
57664;DHT22;43493;53.098;6.064;2022-09-21T08:02:08;16.20;99.90
57664;DHT22;43493;53.098;6.064;2022-09-21T08:04:33;16.10;99.90
57664;DHT22;43493;53.098;6.064;2022-09-21T08:06:59;16.20;99.90
57664;DHT22;43493;53.098;6.064;2022-09-21T08:09:25;16.10;99.90
57664;DHT22;43493;53.098;6.064;2022-09-21T08:14:17;16.10;99.90
57664;DHT22;43493;53.098;6.064;2022-09-21T08:16:46;16.00;99.90
57664;DHT22;43493;53.098;6.064;2022-09-21T08:19:15;16.00;99.90
57664;DHT22;43493;53.098;6.064;2022-09-21T08:21:41;15.90;99.90
57664;DHT22;43493;53.098;6.064;2022-09-21T08:24:08;15.90;99.90
57664;DHT22;43493;53.098;6.064;2022-09-21T08:26:34;15.80;99.90
57664;DHT22;43493;53.098;6.064;2022-09-21T08:29:00;15.70;99.90
57664;DHT22;43493;53.098;6.064;2022-09-21T08:31:27;15.70;99.90
57664;DHT22;43493;53.098;6.064;2022-09-21T08:33:54;15.70;99.90
57664;DHT22;43493;53.098;6.064;2022-09-21T08:36:22;15.60;99.90
57664;DHT22;43493;53.098;6.064;2022-09-21T08:38:47;15.60;99.90
57664;DHT22;43493;53.098;6.064;2022-09-21T08:41:21;15.50;99.90
57664;DHT22;43493;53.098;6.064;2022-09-21T08:43:51;15.50;99.90
57664;DHT22;43493;53.098;6.064;2022-09-21T08:46:23;15.40;99.90
57664;DHT22;43493;53.098;6.064;2022-09-21T08:48:58;15.40;99.90
57664;DHT22;43493;53.098;6.064;2022-09-21T08:51:29;15.30;99.90
57664;DHT22;43493;53.098;6.064;2022-09-21T08:53:59;15.30;99.90
57664;DHT22;43493;53.098;6.064;2022-09-21T08:56:27;15.30;99.90
57664;DHT22;43493;53.098;6.064;2022-09-21T08:58:52;15.30;99.90
57664;DHT22;43493;53.098;6.064;2022-09-21T09:01:30;15.20;99.90
57664;DHT22;43493;53.098;6.064;2022-09-21T09:04:38;15.20;99.90
57664;DHT22;43493;53.098;6.064;2022-09-21T09:07:35;15.20;99.90
57664;DHT22;43493;53.098;6.064;2022-09-21T09:10:32;15.20;99.90
57664;DHT22;43493;53.098;6.064;2022-09-21T09:18:25;15.30;99.90
57664;DHT22;43493;53.098;6.064;2022-09-21T09:21:07;15.30;99.90
57664;DHT22;43493;53.098;6.064;2022-09-21T09:23:42;15.40;99.90
57664;DHT22;43493;53.098;6.064;2022-09-21T09:26:17;15.50;99.90
57664;DHT22;43493;53.098;6.064;2022-09-21T09:28:53;15.60;99.90
57664;DHT22;43493;53.098;6.064;2022-09-21T09:31:29;15.60;99.90
57664;DHT22;43493;53.098;6.064;2022-09-21T09:36:49;15.70;99.90
57664;DHT22;43493;53.098;6.064;2022-09-21T09:39:16;15.80;99.90
57664;DHT22;43493;53.098;6.064;2022-09-21T09:50:03;15.90;99.90
57664;DHT22;43493;53.098;6.064;2022-09-21T09:52:31;15.80;99.90
57664;DHT22;43493;53.098;6.064;2022-09-21T09:54:58;15.80;99.90
57664;DHT22;43493;53.098;6.064;2022-09-21T09:57:29;15.70;99.90
57664;DHT22;43493;53.098;6.064;2022-09-21T10:00:05;15.70;99.90
57664;DHT22;43493;53.098;6.064;2022-09-21T10:02:45;15.60;99.90
57664;DHT22;43493;53.098;6.064;2022-09-21T10:05:31;15.50;99.90
57664;DHT22;43493;53.098;6.064;2022-09-21T10:07:57;15.50;99.90
57664;DHT22;43493;53.098;6.064;2022-09-21T10:13:12;15.30;99.90
57664;DHT22;43493;53.098;6.064;2022-09-21T10:15:59;15.30;99.90
57664;DHT22;43493;53.098;6.064;2022-09-21T10:21:08;15.20;99.90
57664;DHT22;43493;53.098;6.064;2022-09-21T10:23:36;15.10;99.90
57664;DHT22;43493;53.098;6.064;2022-09-21T10:26:10;15.10;99.90
57664;DHT22;43493;53.098;6.064;2022-09-21T10:28:57;15.10;99.90
57664;DHT22;43493;53.098;6.064;2022-09-21T10:31:25;15.20;99.90
57664;DHT22;43493;53.098;6.064;2022-09-21T10:36:34;15.30;99.90
57664;DHT22;43493;53.098;6.064;2022-09-21T10:42:09;15.30;99.90
57664;DHT22;43493;53.098;6.064;2022-09-21T10:44:44;15.40;99.90
57664;DHT22;43493;53.098;6.064;2022-09-21T10:47:22;15.40;99.90
57664;DHT22;43493;53.098;6.064;2022-09-21T10:49:51;15.50;99.80
57664;DHT22;43493;53.098;6.064;2022-09-21T10:52:20;15.60;99.90
57664;DHT22;43493;53.098;6.064;2022-09-21T10:54:48;15.60;99.90
57664;DHT22;43493;53.098;6.064;2022-09-21T10:57:18;15.60;99.90
57664;DHT22;43493;53.098;6.064;2022-09-21T10:59:45;15.70;99.20
57664;DHT22;43493;53.098;6.064;2022-09-21T11:05:08;15.70;99.10
57664;DHT22;43493;53.098;6.064;2022-09-21T11:07:59;15.80;98.70
57664;DHT22;43493;53.098;6.064;2022-09-21T11:10:49;15.80;97.90
57664;DHT22;43493;53.098;6.064;2022-09-21T11:18:42;15.80;95.40
57664;DHT22;43493;53.098;6.064;2022-09-21T11:21:16;15.90;96.20
57664;DHT22;43493;53.098;6.064;2022-09-21T11:24:07;15.80;96.50
57664;DHT22;43493;53.098;6.064;2022-09-21T11:26:56;15.80;96.30
57664;DHT22;43493;53.098;6.064;2022-09-21T11:29:28;15.80;97.10
57664;DHT22;43493;53.098;6.064;2022-09-21T11:38:10;15.80;97.40
57664;DHT22;43493;53.098;6.064;2022-09-21T11:43:19;15.80;96.90
57664;DHT22;43493;53.098;6.064;2022-09-21T11:46:16;15.90;96.90
57664;DHT22;43493;53.098;6.064;2022-09-21T11:51:39;15.80;97.00
57664;DHT22;43493;53.098;6.064;2022-09-21T11:54:20;15.80;97.20
57664;DHT22;43493;53.098;6.064;2022-09-21T12:05:10;15.80;96.50
57664;DHT22;43493;53.098;6.064;2022-09-21T12:08:03;15.80;95.80
57664;DHT22;43493;53.098;6.064;2022-09-21T12:13:32;15.80;96.30
57664;DHT22;43493;53.098;6.064;2022-09-21T12:16:54;15.80;95.60
57664;DHT22;43493;53.098;6.064;2022-09-21T12:21:48;15.70;97.20
57664;DHT22;43493;53.098;6.064;2022-09-21T12:24:24;15.60;96.90
57664;DHT22;43493;53.098;6.064;2022-09-21T12:26:57;15.60;97.10
57664;DHT22;43493;53.098;6.064;2022-09-21T12:29:30;15.60;97.70
57664;DHT22;43493;53.098;6.064;2022-09-21T12:35:00;15.50;98.70
57664;DHT22;43493;53.098;6.064;2022-09-21T12:37:39;15.40;99.10
57664;DHT22;43493;53.098;6.064;2022-09-21T12:40:21;15.40;99.10
57664;DHT22;43493;53.098;6.064;2022-09-21T12:45:47;15.60;96.70
57664;DHT22;43493;53.098;6.064;2022-09-21T12:48:34;15.70;96.50
57664;DHT22;43493;53.098;6.064;2022-09-21T12:51:17;15.80;94.80
57664;DHT22;43493;53.098;6.064;2022-09-21T12:53:46;15.90;95.40
57664;DHT22;43493;53.098;6.064;2022-09-21T12:56:43;15.90;95.00
57664;DHT22;43493;53.098;6.064;2022-09-21T12:59:35;15.90;96.20
57664;DHT22;43493;53.098;6.064;2022-09-21T13:04:59;15.90;95.30
57664;DHT22;43493;53.098;6.064;2022-09-21T13:10:38;15.90;96.10
57664;DHT22;43493;53.098;6.064;2022-09-21T13:13:14;15.90;95.50
57664;DHT22;43493;53.098;6.064;2022-09-21T13:15:45;16.00;96.00
57664;DHT22;43493;53.098;6.064;2022-09-21T13:18:34;16.00;95.30
57664;DHT22;43493;53.098;6.064;2022-09-21T13:21:17;16.00;93.20
57664;DHT22;43493;53.098;6.064;2022-09-21T13:23:51;16.00;95.10
57664;DHT22;43493;53.098;6.064;2022-09-21T13:26:49;16.00;95.70
57664;DHT22;43493;53.098;6.064;2022-09-21T13:32:01;16.00;95.10
57664;DHT22;43493;53.098;6.064;2022-09-21T13:39:55;16.20;94.30
57664;DHT22;43493;53.098;6.064;2022-09-21T13:47:46;16.40;94.80
57664;DHT22;43493;53.098;6.064;2022-09-21T13:50:30;16.40;93.90
57664;DHT22;43493;53.098;6.064;2022-09-21T13:53:05;16.40;94.20
57664;DHT22;43493;53.098;6.064;2022-09-21T13:55:48;16.50;93.20
57664;DHT22;43493;53.098;6.064;2022-09-21T13:58:19;16.60;92.80
57664;DHT22;43493;53.098;6.064;2022-09-21T14:00:50;16.70;93.00
57664;DHT22;43493;53.098;6.064;2022-09-21T14:03:40;16.70;92.10
57664;DHT22;43493;53.098;6.064;2022-09-21T14:06:16;16.80;91.60
57664;DHT22;43493;53.098;6.064;2022-09-21T14:08:54;16.80;92.30
57664;DHT22;43493;53.098;6.064;2022-09-21T14:11:27;16.90;91.50
57664;DHT22;43493;53.098;6.064;2022-09-21T14:19:03;16.90;91.90
57664;DHT22;43493;53.098;6.064;2022-09-21T14:21:29;16.90;91.30
57664;DHT22;43493;53.098;6.064;2022-09-21T14:24:26;16.90;90.30
57664;DHT22;43493;53.098;6.064;2022-09-21T14:30:15;17.00;90.50
57664;DHT22;43493;53.098;6.064;2022-09-21T14:32:55;17.00;90.50
57664;DHT22;43493;53.098;6.064;2022-09-21T14:35:33;17.10;90.90
57664;DHT22;43493;53.098;6.064;2022-09-21T14:40:51;17.20;88.20
57664;DHT22;43493;53.098;6.064;2022-09-21T14:43:30;17.20;88.90
57664;DHT22;43493;53.098;6.064;2022-09-21T14:46:13;17.20;88.30
57664;DHT22;43493;53.098;6.064;2022-09-21T14:53:56;17.20;90.30
57664;DHT22;43493;53.098;6.064;2022-09-21T14:56:51;17.20;89.90
57664;DHT22;43493;53.098;6.064;2022-09-21T14:59:58;17.20;89.40
57664;DHT22;43493;53.098;6.064;2022-09-21T15:02:31;17.20;88.50
57664;DHT22;43493;53.098;6.064;2022-09-21T15:10:52;17.20;83.30
57664;DHT22;43493;53.098;6.064;2022-09-21T15:13:50;17.20;85.20
57664;DHT22;43493;53.098;6.064;2022-09-21T15:18:58;17.10;83.70
57664;DHT22;43493;53.098;6.064;2022-09-21T15:21:26;17.10;83.00
57664;DHT22;43493;53.098;6.064;2022-09-21T15:23:52;17.10;83.30
57664;DHT22;43493;53.098;6.064;2022-09-21T15:26:23;17.10;82.80
57664;DHT22;43493;53.098;6.064;2022-09-21T15:28:54;17.10;82.10
57664;DHT22;43493;53.098;6.064;2022-09-21T15:31:21;17.10;80.40
57664;DHT22;43493;53.098;6.064;2022-09-21T15:33:47;17.10;84.40
57664;DHT22;43493;53.098;6.064;2022-09-21T15:36:22;17.00;83.80
57664;DHT22;43493;53.098;6.064;2022-09-21T15:38:50;17.10;84.00
57664;DHT22;43493;53.098;6.064;2022-09-21T15:46:36;17.10;83.50
57664;DHT22;43493;53.098;6.064;2022-09-21T15:49:02;17.00;83.90
57664;DHT22;43493;53.098;6.064;2022-09-21T15:51:30;17.00;83.80
57664;DHT22;43493;53.098;6.064;2022-09-21T15:54:28;17.00;84.30
57664;DHT22;43493;53.098;6.064;2022-09-21T15:57:00;17.00;84.70
57664;DHT22;43493;53.098;6.064;2022-09-21T15:59:28;16.90;84.40
57664;DHT22;43493;53.098;6.064;2022-09-21T16:01:58;16.90;85.40
57664;DHT22;43493;53.098;6.064;2022-09-21T16:04:26;16.80;86.20
57664;DHT22;43493;53.098;6.064;2022-09-21T16:09:42;16.70;87.40
57664;DHT22;43493;53.098;6.064;2022-09-21T16:12:27;16.60;88.60
57664;DHT22;43493;53.098;6.064;2022-09-21T16:15:00;16.50;90.80
57664;DHT22;43493;53.098;6.064;2022-09-21T16:17:34;16.50;90.30
57664;DHT22;43493;53.098;6.064;2022-09-21T16:20:19;16.40;90.60
57664;DHT22;43493;53.098;6.064;2022-09-21T16:22:52;16.40;90.20
57664;DHT22;43493;53.098;6.064;2022-09-21T16:25:28;16.30;89.80
57664;DHT22;43493;53.098;6.064;2022-09-21T16:27:57;16.30;90.70
57664;DHT22;43493;53.098;6.064;2022-09-21T16:30:43;16.30;91.70
57664;DHT22;43493;53.098;6.064;2022-09-21T16:38:45;16.10;95.90
57664;DHT22;43493;53.098;6.064;2022-09-21T16:43:47;16.00;97.40
57664;DHT22;43493;53.098;6.064;2022-09-21T16:48:41;15.80;99.20
57664;DHT22;43493;53.098;6.064;2022-09-21T16:51:13;15.80;99.90
57664;DHT22;43493;53.098;6.064;2022-09-21T16:56:11;15.70;99.90
57664;DHT22;43493;53.098;6.064;2022-09-21T16:58:38;15.60;99.90
57664;DHT22;43493;53.098;6.064;2022-09-21T17:01:07;15.60;99.90
57664;DHT22;43493;53.098;6.064;2022-09-21T17:03:34;15.50;99.90
57664;DHT22;43493;53.098;6.064;2022-09-21T17:05:59;15.40;99.90
57664;DHT22;43493;53.098;6.064;2022-09-21T17:08:25;15.40;99.90
57664;DHT22;43493;53.098;6.064;2022-09-21T17:10:52;15.30;99.90
57664;DHT22;43493;53.098;6.064;2022-09-21T17:13:19;15.20;99.90
57664;DHT22;43493;53.098;6.064;2022-09-21T17:15:46;15.20;99.90
57664;DHT22;43493;53.098;6.064;2022-09-21T17:18:12;15.10;99.90
57664;DHT22;43493;53.098;6.064;2022-09-21T17:20:40;15.00;99.90
57664;DHT22;43493;53.098;6.064;2022-09-21T17:23:06;14.90;99.90
57664;DHT22;43493;53.098;6.064;2022-09-21T17:25:33;14.90;99.90
57664;DHT22;43493;53.098;6.064;2022-09-21T17:28:00;14.80;99.90
57664;DHT22;43493;53.098;6.064;2022-09-21T17:30:27;14.80;99.90
57664;DHT22;43493;53.098;6.064;2022-09-21T17:32:54;14.70;99.90
57664;DHT22;43493;53.098;6.064;2022-09-21T17:35:35;14.70;99.90
57664;DHT22;43493;53.098;6.064;2022-09-21T17:38:03;14.60;99.90
57664;DHT22;43493;53.098;6.064;2022-09-21T17:40:29;14.60;99.90
57664;DHT22;43493;53.098;6.064;2022-09-21T17:45:51;14.40;99.90
57664;DHT22;43493;53.098;6.064;2022-09-21T17:48:20;14.40;99.90
57664;DHT22;43493;53.098;6.064;2022-09-21T17:50:47;14.30;99.90
57664;DHT22;43493;53.098;6.064;2022-09-21T17:53:14;14.30;99.90
57664;DHT22;43493;53.098;6.064;2022-09-21T17:58:56;14.20;99.90
57664;DHT22;43493;53.098;6.064;2022-09-21T18:01:30;14.10;99.90
57664;DHT22;43493;53.098;6.064;2022-09-21T18:03:56;14.10;99.90
57664;DHT22;43493;53.098;6.064;2022-09-21T18:06:23;14.00;99.90
57664;DHT22;43493;53.098;6.064;2022-09-21T18:08:49;14.00;99.90
57664;DHT22;43493;53.098;6.064;2022-09-21T18:20:57;13.80;99.90
57664;DHT22;43493;53.098;6.064;2022-09-21T18:26:17;13.70;99.90
57664;DHT22;43493;53.098;6.064;2022-09-21T18:28:48;13.70;99.90
57664;DHT22;43493;53.098;6.064;2022-09-21T18:34:22;13.60;99.90
57664;DHT22;43493;53.098;6.064;2022-09-21T18:37:41;13.50;99.90
57664;DHT22;43493;53.098;6.064;2022-09-21T18:43:17;13.50;99.90
57664;DHT22;43493;53.098;6.064;2022-09-21T18:46:10;13.50;99.90
57664;DHT22;43493;53.098;6.064;2022-09-21T18:49:09;13.50;99.90
57664;DHT22;43493;53.098;6.064;2022-09-21T18:51:59;13.40;99.90
57664;DHT22;43493;53.098;6.064;2022-09-21T18:54:29;13.30;99.90
57664;DHT22;43493;53.098;6.064;2022-09-21T18:56:55;13.30;99.90
57664;DHT22;43493;53.098;6.064;2022-09-21T18:59:21;13.30;99.90
57664;DHT22;43493;53.098;6.064;2022-09-21T19:01:48;13.20;99.90
57664;DHT22;43493;53.098;6.064;2022-09-21T19:04:15;13.20;99.90
57664;DHT22;43493;53.098;6.064;2022-09-21T19:06:58;13.10;99.90
57664;DHT22;43493;53.098;6.064;2022-09-21T19:09:39;13.10;99.90
57664;DHT22;43493;53.098;6.064;2022-09-21T19:12:19;13.10;99.90
57664;DHT22;43493;53.098;6.064;2022-09-21T19:15:11;13.10;99.90
57664;DHT22;43493;53.098;6.064;2022-09-21T19:20:44;13.10;99.90
57664;DHT22;43493;53.098;6.064;2022-09-21T19:28:54;13.00;99.90
57664;DHT22;43493;53.098;6.064;2022-09-21T19:31:23;12.90;99.90
57664;DHT22;43493;53.098;6.064;2022-09-21T19:33:49;12.90;99.90
57664;DHT22;43493;53.098;6.064;2022-09-21T19:36:23;12.80;99.90
57664;DHT22;43493;53.098;6.064;2022-09-21T19:38:49;12.80;99.90
57664;DHT22;43493;53.098;6.064;2022-09-21T19:41:30;12.80;99.90
57664;DHT22;43493;53.098;6.064;2022-09-21T19:46:42;12.70;99.90
57664;DHT22;43493;53.098;6.064;2022-09-21T19:49:17;12.60;99.90
57664;DHT22;43493;53.098;6.064;2022-09-21T19:54:17;12.60;99.90
57664;DHT22;43493;53.098;6.064;2022-09-21T19:57:12;12.50;99.90
57664;DHT22;43493;53.098;6.064;2022-09-21T19:59:57;12.50;99.90
57664;DHT22;43493;53.098;6.064;2022-09-21T20:02:28;12.50;99.90
57664;DHT22;43493;53.098;6.064;2022-09-21T20:04:59;12.40;99.90
57664;DHT22;43493;53.098;6.064;2022-09-21T20:15:44;12.30;99.90